Time;durP1;ratioP1;P1;durP2;ratioP2;P2;SDS_P1;SDS_P2;PMS_P1;PMS_P2;Temp;Humidity;BMP_temperature;BMP_pressure;BME280_temperature;BME280_humidity;BME280_pressure;Samples;Min_cycle;Max_cycle;Signal;HPM_P1;HPM_P2
2023/04/05 00:00:32;;;;;;;3.33;1.40;;;;;;;;;;5011617;28;20459;-77
2023/04/05 00:02:58;;;;;;;6.13;2.00;;;;;;;;;;5012843;28;20453;-77
2023/04/05 00:05:33;;;;;;;2.90;1.67;;;;;;;;;;5011633;28;20414;-77
2023/04/05 00:07:59;;;;;;;3.00;1.53;;;;;;;;;;5012983;28;20421;-76
2023/04/05 00:10:25;;;;;;;3.17;1.67;;;;;;;;;;5011619;28;20428;-76
2023/04/05 00:12:52;;;;;;;5.27;1.87;;;;;;;;;;5011199;28;20418;-76
2023/04/05 00:15:26;;;;;;;4.07;2.17;;;;;;;;;;5011528;28;20431;-77
2023/04/05 00:17:55;;;;;;;3.60;1.07;;;;;;;;;;5011410;28;20599;-77
2023/04/05 00:20:21;;;;;;;3.87;2.00;;;;;;;;;;5012721;28;20407;-76
2023/04/05 00:22:49;;;;;;;4.20;1.83;;;;;;;;;;5012784;28;20784;-76
2023/04/05 00:25:15;;;;;;;5.00;2.40;;;;;;;;;;5015307;28;20782;-78
2023/04/05 00:27:42;;;;;;;2.93;2.30;;;;;;;;;;5016289;28;20427;-76
2023/04/05 00:30:09;;;;;;;2.90;1.80;;;;;;;;;;5015535;28;20417;-76
2023/04/05 00:32:35;;;;;;;4.03;2.53;;;;;;;;;;5016732;28;20420;-77
2023/04/05 00:35:01;;;;;;;4.83;2.80;;;;;;;;;;5016727;28;20476;-76
2023/04/05 00:37:27;;;;;;;3.97;2.23;;;;;;;;;;5016557;28;20477;-76
2023/04/05 00:39:53;;;;;;;3.30;1.90;;;;;;;;;;5015226;28;20422;-76
2023/04/05 00:42:19;;;;;;;6.30;2.30;;;;;;;;;;5015178;28;20425;-76
2023/04/05 00:44:45;;;;;;;6.10;2.53;;;;;;;;;;5015168;28;20493;-76
2023/04/05 00:47:11;;;;;;;9.40;3.37;;;;;;;;;;5016573;28;20414;-76
2023/04/05 00:49:38;;;;;;;4.10;2.60;;;;;;;;;;5016452;28;20409;-76
2023/04/05 00:52:04;;;;;;;4.90;3.10;;;;;;;;;;5016378;28;20517;-76
2023/04/05 00:54:30;;;;;;;5.50;3.30;;;;;;;;;;5016350;28;20468;-76
2023/04/05 00:56:58;;;;;;;3.13;2.23;;;;;;;;;;5016297;28;20523;-77
2023/04/05 00:59:24;;;;;;;6.80;2.87;;;;;;;;;;5034812;28;20475;-77
2023/04/05 01:01:54;;;;;;;3.50;2.47;;;;;;;;;;5036024;28;20812;-77
2023/04/05 01:04:29;;;;;;;4.60;2.83;;;;;;;;;;5036008;28;20406;-77
2023/04/05 01:06:56;;;;;;;5.17;2.50;;;;;;;;;;5018188;28;20460;-77
2023/04/05 01:09:43;;;;;;;3.20;2.90;;;;;;;;;;5035725;28;20477;-77
2023/04/05 01:12:09;;;;;;;5.40;2.57;;;;;;;;;;5018075;28;20413;-77
2023/04/05 01:14:45;;;;;;;4.70;2.50;;;;;;;;;;5017565;28;20512;-77
2023/04/05 01:17:11;;;;;;;4.23;2.80;;;;;;;;;;5035664;28;20834;-77
2023/04/05 01:19:40;;;;;;;3.13;2.17;;;;;;;;;;5035698;28;20502;-77
2023/04/05 01:22:12;;;;;;;6.30;3.40;;;;;;;;;;5017888;28;20432;-77
2023/04/05 01:24:45;;;;;;;7.23;2.57;;;;;;;;;;5017892;28;20447;-77
2023/04/05 01:27:19;;;;;;;10.37;3.77;;;;;;;;;;5035290;28;20417;-77
2023/04/05 01:29:48;;;;;;;2.57;1.83;;;;;;;;;;5017742;28;20769;-76
2023/04/05 01:32:15;;;;;;;5.33;3.63;;;;;;;;;;5035427;28;20419;-76
2023/04/05 01:35:01;;;;;;;5.50;3.27;;;;;;;;;;5035086;28;20508;-76
2023/04/05 01:37:30;;;;;;;5.13;2.43;;;;;;;;;;5034453;28;20557;-77
2023/04/05 01:39:57;;;;;;;6.73;3.30;;;;;;;;;;5035328;28;20408;-78
2023/04/05 01:42:24;;;;;;;3.83;2.57;;;;;;;;;;5034954;28;20420;-76
2023/04/05 01:44:50;;;;;;;4.63;2.43;;;;;;;;;;5017507;28;20413;-76
2023/04/05 01:47:16;;;;;;;4.53;2.73;;;;;;;;;;5035189;28;20401;-76
2023/04/05 01:49:42;;;;;;;4.60;2.37;;;;;;;;;;5035148;28;20405;-77
2023/04/05 01:52:08;;;;;;;5.10;3.20;;;;;;;;;;5035145;28;20409;-76
2023/04/05 01:54:34;;;;;;;3.40;2.30;;;;;;;;;;5035106;28;20416;-76
2023/04/05 01:57:00;;;;;;;5.90;2.63;;;;;;;;;;5034988;28;20496;-76
2023/04/05 01:59:29;;;;;;;4.60;2.90;;;;;;;;;;5016694;28;20469;-76
2023/04/05 02:01:55;;;;;;;5.67;2.97;;;;;;;;;;5034922;28;20433;-77
2023/04/05 02:04:24;;;;;;;6.97;3.57;;;;;;;;;;5034980;28;20405;-77
2023/04/05 02:06:50;;;;;;;4.10;2.80;;;;;;;;;;5017022;28;20435;-76
2023/04/05 02:09:16;;;;;;;5.67;3.00;;;;;;;;;;5034873;28;20439;-77
2023/04/05 02:11:42;;;;;;;5.57;3.40;;;;;;;;;;5034786;28;20449;-76
2023/04/05 02:14:12;;;;;;;7.97;3.20;;;;;;;;;;5016584;28;20418;-76
2023/04/05 02:16:46;;;;;;;4.53;2.83;;;;;;;;;;5034606;28;20444;-76
2023/04/05 02:19:12;;;;;;;3.80;2.33;;;;;;;;;;5034600;28;20424;-76
2023/04/05 02:21:39;;;;;;;4.00;2.63;;;;;;;;;;5034504;28;20428;-76
2023/04/05 02:24:05;;;;;;;7.83;2.87;;;;;;;;;;5034462;28;20413;-76
2023/04/05 02:26:31;;;;;;;5.57;3.93;;;;;;;;;;5016686;28;20417;-76
2023/04/05 02:28:57;;;;;;;4.23;3.03;;;;;;;;;;5033967;28;20876;-76
2023/04/05 02:31:23;;;;;;;4.80;2.97;;;;;;;;;;5034182;28;20409;-76
2023/04/05 02:33:49;;;;;;;7.07;3.03;;;;;;;;;;5034197;28;20466;-76
2023/04/05 02:36:15;;;;;;;5.30;2.90;;;;;;;;;;5034076;28;20411;-77
2023/04/05 02:38:41;;;;;;;5.90;2.93;;;;;;;;;;5016256;28;20985;-75
2023/04/05 02:41:08;;;;;;;4.50;3.00;;;;;;;;;;5034177;28;20409;-76
2023/04/05 02:43:34;;;;;;;4.43;2.67;;;;;;;;;;5033680;28;20417;-76
2023/04/05 02:46:00;;;;;;;3.60;2.60;;;;;;;;;;5033977;28;20939;-76
2023/04/05 02:48:26;;;;;;;5.50;2.50;;;;;;;;;;5033824;28;20409;-76
2023/04/05 02:50:53;;;;;;;5.03;2.80;;;;;;;;;;5033919;28;20820;-76
2023/04/05 02:53:20;;;;;;;4.90;2.87;;;;;;;;;;5033908;28;20408;-76
2023/04/05 02:55:55;;;;;;;3.77;2.53;;;;;;;;;;5016092;28;20421;-75
2023/04/05 02:58:22;;;;;;;3.80;3.03;;;;;;;;;;5033171;28;20686;-75
2023/04/05 03:00:50;;;;;;;6.73;3.67;;;;;;;;;;5033832;28;20421;-75
2023/04/05 03:03:19;;;;;;;5.37;2.27;;;;;;;;;;5033633;28;20780;-75
2023/04/05 03:05:47;;;;;;;6.37;2.43;;;;;;;;;;5033586;28;20411;-76
2023/04/05 03:08:22;;;;;;;3.93;3.30;;;;;;;;;;5033645;28;20419;-76
2023/04/05 03:10:50;;;;;;;6.43;3.40;;;;;;;;;;5033672;28;20406;-76
2023/04/05 03:13:16;;;;;;;6.63;3.60;;;;;;;;;;5033166;28;20424;-77
2023/04/05 03:15:45;;;;;;;4.73;2.50;;;;;;;;;;5015820;28;20500;-76
2023/04/05 03:18:11;;;;;;;4.30;2.83;;;;;;;;;;5033411;28;20953;-75
2023/04/05 03:20:38;;;;;;;7.00;3.47;;;;;;;;;;5033456;28;20416;-76
2023/04/05 03:23:06;;;;;;;3.97;2.53;;;;;;;;;;5033428;28;20479;-76
2023/04/05 03:25:33;;;;;;;4.17;3.53;;;;;;;;;;5033381;28;20974;-77
2023/04/05 03:27:59;;;;;;;4.30;2.50;;;;;;;;;;5032927;28;20463;-76
2023/04/05 03:30:25;;;;;;;4.27;3.07;;;;;;;;;;5015628;28;20406;-76
2023/04/05 03:32:51;;;;;;;4.30;3.37;;;;;;;;;;5033194;28;20485;-76
2023/04/05 03:35:18;;;;;;;5.80;2.50;;;;;;;;;;5033242;28;20996;-76
2023/04/05 03:37:44;;;;;;;4.07;3.03;;;;;;;;;;5033104;28;20507;-76
2023/04/05 03:40:11;;;;;;;5.90;2.30;;;;;;;;;;5033137;28;20397;-76
2023/04/05 03:42:37;;;;;;;6.87;2.23;;;;;;;;;;5032797;28;20428;-75
2023/04/05 03:45:04;;;;;;;5.93;2.67;;;;;;;;;;5015301;28;20417;-76
2023/04/05 03:47:30;;;;;;;9.83;3.37;;;;;;;;;;5033113;28;20769;-75
2023/04/05 03:49:56;;;;;;;4.50;3.33;;;;;;;;;;5033001;28;20431;-75
2023/04/05 03:52:22;;;;;;;3.47;3.17;;;;;;;;;;5032907;28;20432;-77
2023/04/05 03:54:48;;;;;;;6.80;3.53;;;;;;;;;;5032880;28;20410;-76
2023/04/05 03:57:14;;;;;;;5.10;3.07;;;;;;;;;;5032348;28;20552;-78
2023/04/05 03:59:40;;;;;;;9.40;4.00;;;;;;;;;;5032449;28;20515;-76
2023/04/05 04:02:06;;;;;;;5.20;3.03;;;;;;;;;;5032872;28;20500;-76
2023/04/05 04:04:35;;;;;;;3.23;2.80;;;;;;;;;;5032807;28;20540;-76
2023/04/05 04:07:01;;;;;;;5.47;2.90;;;;;;;;;;5032806;28;20922;-75
2023/04/05 04:09:28;;;;;;;3.10;2.57;;;;;;;;;;5032846;28;20405;-76
2023/04/05 04:11:55;;;;;;;3.23;2.30;;;;;;;;;;5032556;28;20425;-76
2023/04/05 04:14:21;;;;;;;2.93;2.60;;;;;;;;;;5032705;28;20474;-76
2023/04/05 04:16:47;;;;;;;3.73;2.67;;;;;;;;;;5032824;28;20417;-76
2023/04/05 04:19:13;;;;;;;6.40;4.43;;;;;;;;;;5032702;28;20420;-75
2023/04/05 04:21:39;;;;;;;4.57;3.03;;;;;;;;;;5032766;28;20978;-76
2023/04/05 04:24:05;;;;;;;2.90;2.57;;;;;;;;;;5032474;28;20421;-76
2023/04/05 04:26:36;;;;;;;7.20;3.10;;;;;;;;;;5021089;28;20433;-76
2023/04/05 04:29:05;;;;;;;5.37;2.90;;;;;;;;;;5019108;28;20487;-76
2023/04/05 04:31:32;;;;;;;4.03;2.60;;;;;;;;;;5019379;28;21508;-77
2023/04/05 04:34:01;;;;;;;3.23;2.30;;;;;;;;;;5018438;28;20448;-77
2023/04/05 04:36:33;;;;;;;4.23;2.80;;;;;;;;;;5009357;28;20436;-75
2023/04/05 04:38:59;;;;;;;5.10;2.93;;;;;;;;;;5018933;28;20680;-77
2023/04/05 04:41:25;;;;;;;7.27;2.73;;;;;;;;;;5008042;28;20548;-76
2023/04/05 04:43:53;;;;;;;4.67;2.80;;;;;;;;;;5018027;28;20437;-76
2023/04/05 04:46:19;;;;;;;4.93;3.07;;;;;;;;;;5019278;28;21169;-76
2023/04/05 04:48:46;;;;;;;3.47;3.00;;;;;;;;;;5018609;28;20441;-77
2023/04/05 04:51:12;;;;;;;8.43;2.63;;;;;;;;;;5018696;28;20531;-76
2023/04/05 04:53:38;;;;;;;4.20;3.43;;;;;;;;;;5019661;28;20532;-76
2023/04/05 04:56:07;;;;;;;6.77;3.70;;;;;;;;;;5018365;28;20438;-76
2023/04/05 04:58:33;;;;;;;4.13;3.47;;;;;;;;;;5018434;28;20544;-77
2023/04/05 05:01:00;;;;;;;4.60;3.07;;;;;;;;;;5019215;28;20437;-76
2023/04/05 05:03:26;;;;;;;4.83;3.57;;;;;;;;;;5018541;28;20446;-77
2023/04/05 05:05:52;;;;;;;4.87;3.13;;;;;;;;;;5018380;28;20433;-76
2023/04/05 05:08:18;;;;;;;7.67;4.20;;;;;;;;;;5019029;28;20487;-77
2023/04/05 05:10:44;;;;;;;5.40;3.33;;;;;;;;;;5018990;28;20440;-77
2023/04/05 05:13:10;;;;;;;6.80;3.53;;;;;;;;;;5021586;28;20444;-76
2023/04/05 05:15:38;;;;;;;3.50;2.90;;;;;;;;;;5022386;28;21002;-76
2023/04/05 05:18:04;;;;;;;7.37;3.80;;;;;;;;;;5021422;28;20499;-76
2023/04/05 05:20:29;;;;;;;5.43;2.90;;;;;;;;;;5012864;28;20979;-76
2023/04/05 05:22:55;;;;;;;6.13;3.97;;;;;;;;;;5021853;28;20443;-76
2023/04/05 05:25:21;;;;;;;6.03;4.30;;;;;;;;;;5011738;28;20429;-76
2023/04/05 05:27:50;;;;;;;10.63;5.17;;;;;;;;;;5021439;28;20432;-76
2023/04/05 05:30:17;;;;;;;6.03;3.17;;;;;;;;;;5022214;28;20444;-76
2023/04/05 05:32:42;;;;;;;5.20;3.23;;;;;;;;;;5022887;28;21014;-76
2023/04/05 05:35:09;;;;;;;6.00;4.10;;;;;;;;;;5021911;28;20529;-76
2023/04/05 05:37:36;;;;;;;4.90;3.13;;;;;;;;;;5020859;28;20489;-77
2023/04/05 05:40:03;;;;;;;5.77;3.70;;;;;;;;;;5021703;28;20560;-77
2023/04/05 05:42:31;;;;;;;7.60;5.10;;;;;;;;;;5021480;28;20463;-76
2023/04/05 05:45:00;;;;;;;4.70;3.30;;;;;;;;;;5021835;28;20433;-77
2023/04/05 05:47:26;;;;;;;6.47;4.53;;;;;;;;;;5011158;28;20434;-77
2023/04/05 05:49:52;;;;;;;5.13;3.40;;;;;;;;;;5002937;28;21002;-77
2023/04/05 05:52:21;;;;;;;5.60;3.50;;;;;;;;;;5003905;28;20431;-77
2023/04/05 05:54:47;;;;;;;5.37;3.90;;;;;;;;;;5020850;28;20526;-77
2023/04/05 05:57:13;;;;;;;7.20;3.63;;;;;;;;;;5033357;28;20515;-76
2023/04/05 05:59:40;;;;;;;3.77;3.37;;;;;;;;;;5034943;28;20414;-76
2023/04/05 06:02:06;;;;;;;6.10;2.73;;;;;;;;;;5034811;28;20440;-77
2023/04/05 06:04:33;;;;;;;5.77;3.83;;;;;;;;;;5034806;28;20417;-76
2023/04/05 06:06:59;;;;;;;5.90;3.30;;;;;;;;;;5034809;28;20472;-76
2023/04/05 06:09:25;;;;;;;10.37;2.90;;;;;;;;;;5034833;28;20484;-76
2023/04/05 06:11:55;;;;;;;5.90;3.20;;;;;;;;;;5016666;28;20494;-76
2023/04/05 06:14:21;;;;;;;3.53;1.97;;;;;;;;;;5016871;28;20428;-76
2023/04/05 06:16:47;;;;;;;5.90;3.33;;;;;;;;;;5034285;28;20768;-76
2023/04/05 06:19:13;;;;;;;3.30;2.00;;;;;;;;;;5034608;28;20413;-76
2023/04/05 06:21:39;;;;;;;3.83;2.57;;;;;;;;;;5034162;28;20433;-76
2023/04/05 06:24:05;;;;;;;4.90;2.50;;;;;;;;;;5034481;28;20411;-76
2023/04/05 06:26:31;;;;;;;5.80;2.60;;;;;;;;;;5034205;28;20817;-76
2023/04/05 06:28:57;;;;;;;5.17;3.20;;;;;;;;;;5034528;28;20407;-75
2023/04/05 06:31:26;;;;;;;8.83;3.03;;;;;;;;;;5016551;28;21006;-76
2023/04/05 06:33:52;;;;;;;4.23;2.63;;;;;;;;;;5034281;28;20420;-77
2023/04/05 06:36:18;;;;;;;3.53;2.87;;;;;;;;;;5034242;28;20421;-77
2023/04/05 06:38:44;;;;;;;7.17;2.40;;;;;;;;;;5034230;28;21136;-78
2023/04/05 06:41:13;;;;;;;3.40;1.87;;;;;;;;;;5034173;28;20413;-77
2023/04/05 06:43:39;;;;;;;5.83;3.13;;;;;;;;;;5015925;28;20439;-77
2023/04/05 06:46:10;;;;;;;4.33;1.70;;;;;;;;;;5034093;28;20447;-77
2023/04/05 06:48:36;;;;;;;4.60;2.73;;;;;;;;;;5034285;28;20434;-77
2023/04/05 06:51:02;;;;;;;3.77;2.50;;;;;;;;;;5034045;28;20412;-77
2023/04/05 06:53:28;;;;;;;5.63;2.90;;;;;;;;;;5016277;28;20931;-78
2023/04/05 06:55:55;;;;;;;7.97;3.57;;;;;;;;;;5016209;28;20415;-77
2023/04/05 06:58:22;;;;;;;5.33;3.30;;;;;;;;;;5033224;28;21058;-77
2023/04/05 07:00:48;;;;;;;5.50;3.33;;;;;;;;;;5033833;28;20761;-77
2023/04/05 07:03:14;;;;;;;5.50;2.67;;;;;;;;;;5033764;28;20511;-77
2023/04/05 07:05:39;;;;;;;5.10;2.80;;;;;;;;;;5015958;28;20416;-76
2023/04/05 07:08:05;;;;;;;7.40;2.60;;;;;;;;;;5016011;28;20428;-77
2023/04/05 07:10:31;;;;;;;6.70;2.40;;;;;;;;;;5033631;28;20780;-77
2023/04/05 07:12:57;;;;;;;3.90;2.67;;;;;;;;;;5015561;28;20439;-78
2023/04/05 07:15:23;;;;;;;4.40;2.67;;;;;;;;;;5033212;28;20418;-77
2023/04/05 07:17:49;;;;;;;6.03;2.97;;;;;;;;;;5033064;28;21064;-77
2023/04/05 07:20:15;;;;;;;7.43;2.07;;;;;;;;;;5032870;28;20424;-78
2023/04/05 07:22:41;;;;;;;4.33;2.67;;;;;;;;;;5033396;28;20413;-77
2023/04/05 07:25:08;;;;;;;2.20;1.20;;;;;;;;;;5033357;28;20413;-77
2023/04/05 07:27:34;;;;;;;3.10;1.00;;;;;;;;;;5033046;28;20422;-78
2023/04/05 07:30:00;;;;;;;4.60;2.17;;;;;;;;;;5033277;28;20420;-78
2023/04/05 07:32:26;;;;;;;3.90;1.87;;;;;;;;;;5033270;28;20441;-78
2023/04/05 07:34:52;;;;;;;6.27;2.40;;;;;;;;;;5032519;28;20410;-77
2023/04/05 07:37:18;;;;;;;4.53;2.40;;;;;;;;;;5033086;28;20540;-78
2023/04/05 07:39:44;;;;;;;4.43;1.90;;;;;;;;;;5015356;28;20850;-77
2023/04/05 07:42:10;;;;;;;2.67;1.77;;;;;;;;;;5032583;28;20903;-77
2023/04/05 07:44:36;;;;;;;2.73;1.70;;;;;;;;;;5033087;28;20425;-77
2023/04/05 07:47:02;;;;;;;7.00;2.40;;;;;;;;;;5015326;28;20179;-77
2023/04/05 07:49:29;;;;;;;2.60;1.70;;;;;;;;;;5033050;28;20413;-77
2023/04/05 07:51:55;;;;;;;2.80;1.63;;;;;;;;;;5015148;28;20936;-78
2023/04/05 07:54:21;;;;;;;6.03;2.00;;;;;;;;;;5033027;28;20514;-78
2023/04/05 07:56:48;;;;;;;3.93;1.93;;;;;;;;;;5014803;28;20421;-78
2023/04/05 07:59:14;;;;;;;4.17;1.50;;;;;;;;;;5048140;28;20478;-79
2023/04/05 08:01:40;;;;;;;2.07;0.60;;;;;;;;;;5052826;28;20773;-76
2023/04/05 08:04:06;;;;;;;3.47;2.47;;;;;;;;;;5034860;28;20480;-76
2023/04/05 08:06:32;;;;;;;1.87;0.97;;;;;;;;;;5052670;28;20230;-77
2023/04/05 08:08:58;;;;;;;2.10;0.90;;;;;;;;;;5034921;28;20423;-76
2023/04/05 08:11:25;;;;;;;4.30;1.47;;;;;;;;;;5052225;28;20630;-77
2023/04/05 08:13:52;;;;;;;8.20;0.83;;;;;;;;;;5052743;28;20421;-77
2023/04/05 08:16:18;;;;;;;2.00;0.67;;;;;;;;;;5052565;28;20401;-78
2023/04/05 08:18:45;;;;;;;2.13;0.47;;;;;;;;;;5034689;28;20474;-78
2023/04/05 08:21:10;;;;;;;4.60;0.50;;;;;;;;;;5052620;28;20622;-78
2023/04/05 08:23:37;;;;;;;1.87;0.50;;;;;;;;;;5034579;28;20432;-78
2023/04/05 08:26:03;;;;;;;3.67;1.13;;;;;;;;;;5052311;28;20170;-78
2023/04/05 08:28:29;;;;;;;3.27;1.13;;;;;;;;;;5052613;28;20469;-78
2023/04/05 08:30:56;;;;;;;1.40;0.70;;;;;;;;;;5052595;28;21485;-77
2023/04/05 08:33:22;;;;;;;1.50;1.33;;;;;;;;;;5052365;28;20767;-77
2023/04/05 08:35:48;;;;;;;2.33;0.90;;;;;;;;;;5052343;28;20412;-78
2023/04/05 08:38:14;;;;;;;2.30;1.50;;;;;;;;;;5052418;28;20301;-77
2023/04/05 08:40:41;;;;;;;1.80;0.73;;;;;;;;;;5052500;28;20919;-77
2023/04/05 08:43:28;;;;;;;3.20;0.90;;;;;;;;;;5052017;28;20184;-75
2023/04/05 08:45:58;;;;;;;2.03;0.50;;;;;;;;;;5054396;28;20406;-76
2023/04/05 08:48:24;;;;;;;2.87;0.90;;;;;;;;;;5056111;28;20423;-76
2023/04/05 08:50:54;;;;;;;1.93;0.93;;;;;;;;;;5038423;28;20412;-76
2023/04/05 08:53:20;;;;;;;1.50;1.00;;;;;;;;;;5056012;28;20856;-76
2023/04/05 08:55:50;;;;;;;3.17;0.97;;;;;;;;;;5033400;28;20528;-76
2023/04/05 08:58:17;;;;;;;1.90;0.50;;;;;;;;;;5035273;28;20490;-76
2023/04/05 09:00:43;;;;;;;1.90;0.70;;;;;;;;;;5018357;28;20413;-75
2023/04/05 09:03:15;;;;;;;2.53;0.87;;;;;;;;;;5035659;28;20966;-76
2023/04/05 09:05:41;;;;;;;2.33;0.90;;;;;;;;;;5035907;28;20444;-76
2023/04/05 09:08:07;;;;;;;4.27;1.27;;;;;;;;;;5035897;28;20466;-76
2023/04/05 09:10:34;;;;;;;1.90;1.07;;;;;;;;;;5018078;28;20428;-76
2023/04/05 09:13:02;;;;;;;3.03;0.77;;;;;;;;;;5035481;28;20784;-76
2023/04/05 09:15:28;;;;;;;2.33;1.03;;;;;;;;;;5035710;28;20413;-76
2023/04/05 09:17:54;;;;;;;3.50;1.43;;;;;;;;;;5035669;28;20475;-76
2023/04/05 09:20:20;;;;;;;4.53;1.17;;;;;;;;;;5017952;28;20414;-76
2023/04/05 09:22:46;;;;;;;3.13;1.20;;;;;;;;;;5035784;28;20423;-77
2023/04/05 09:25:31;;;;;;;2.30;1.37;;;;;;;;;;5035658;28;20786;-76
2023/04/05 09:27:57;;;;;;;2.17;1.30;;;;;;;;;;5035231;28;20441;-76
2023/04/05 09:30:23;;;;;;;2.63;1.33;;;;;;;;;;5035607;28;20413;-75
2023/04/05 09:32:51;;;;;;;3.20;1.67;;;;;;;;;;5035534;28;20771;-76
2023/04/05 09:35:27;;;;;;;2.53;1.60;;;;;;;;;;5035522;28;20471;-76
2023/04/05 09:38:06;;;;;;;4.00;1.67;;;;;;;;;;5035352;28;20674;-76
2023/04/05 09:40:45;;;;;;;3.23;1.33;;;;;;;;;;5035382;28;20396;-76
2023/04/05 09:43:12;;;;;;;4.70;1.60;;;;;;;;;;5035020;28;20408;-75
2023/04/05 09:45:39;;;;;;;5.97;1.93;;;;;;;;;;5035252;28;20401;-76
2023/04/05 09:48:05;;;;;;;4.53;2.20;;;;;;;;;;5035304;28;20413;-76
2023/04/05 09:50:31;;;;;;;3.20;1.10;;;;;;;;;;5035172;28;20409;-76
2023/04/05 09:53:05;;;;;;;2.50;1.50;;;;;;;;;;5035072;28;20201;-76
2023/04/05 09:55:32;;;;;;;3.53;1.80;;;;;;;;;;5035025;28;20642;-76
2023/04/05 09:57:58;;;;;;;3.40;1.67;;;;;;;;;;5015920;28;21091;-76
2023/04/05 10:00:24;;;;;;;4.00;1.77;;;;;;;;;;5034800;28;20497;-76
2023/04/05 10:03:04;;;;;;;2.83;2.00;;;;;;;;;;5034914;28;20421;-78
2023/04/05 10:05:31;;;;;;;2.87;1.70;;;;;;;;;;5034939;28;20421;-78
2023/04/05 10:07:57;;;;;;;2.57;1.53;;;;;;;;;;5034877;28;20405;-78
2023/04/05 10:10:23;;;;;;;2.87;1.50;;;;;;;;;;5017012;28;20913;-78
2023/04/05 10:12:50;;;;;;;4.77;1.90;;;;;;;;;;5034383;28;20417;-78
2023/04/05 10:15:17;;;;;;;3.70;2.60;;;;;;;;;;5017002;28;20417;-78
2023/04/05 10:17:54;;;;;;;5.60;2.23;;;;;;;;;;5016830;28;20566;-77
2023/04/05 10:20:21;;;;;;;5.77;2.00;;;;;;;;;;5034648;28;20405;-78
2023/04/05 10:23:05;;;;;;;3.87;2.00;;;;;;;;;;5034576;28;20417;-75
2023/04/05 10:25:49;;;;;;;3.20;2.00;;;;;;;;;;5034549;28;20433;-76
2023/04/05 10:28:51;;;;;;;3.57;2.13;;;;;;;;;;5034407;28;20807;-76
2023/04/05 10:31:25;;;;;;;3.80;2.23;;;;;;;;;;4954069;29;20424;-77
2023/04/05 10:33:55;;;;;;;3.03;2.00;;;;;;;;;;5005386;28;20775;-78
2023/04/05 10:36:40;;;;;;;3.57;2.30;;;;;;;;;;5016428;28;20936;-78
2023/04/05 10:39:25;;;;;;;2.90;2.33;;;;;;;;;;5016458;28;20464;-78
2023/04/05 10:41:56;;;;;;;3.17;2.70;;;;;;;;;;5033815;28;20447;-78
2023/04/05 10:44:22;;;;;;;4.63;2.53;;;;;;;;;;5034126;28;20432;-78
2023/04/05 10:46:50;;;;;;;5.13;2.57;;;;;;;;;;5034003;28;20939;-78
2023/04/05 10:49:21;;;;;;;2.80;1.93;;;;;;;;;;5034032;28;20409;-78
2023/04/05 10:51:48;;;;;;;3.73;2.47;;;;;;;;;;5033918;28;20424;-78
2023/04/05 10:54:16;;;;;;;2.00;1.30;;;;;;;;;;5016185;28;20417;-78
2023/04/05 10:56:42;;;;;;;3.80;2.60;;;;;;;;;;5033368;28;20421;-77
2023/04/05 10:59:09;;;;;;;3.60;1.63;;;;;;;;;;5032278;28;20463;-78
2023/04/05 11:01:35;;;;;;;3.43;2.47;;;;;;;;;;5032465;28;20413;-78
2023/04/05 11:04:11;;;;;;;3.80;2.37;;;;;;;;;;5032451;28;20433;-77
2023/04/05 11:06:37;;;;;;;4.60;1.90;;;;;;;;;;5033820;28;20424;-77
2023/04/05 11:09:03;;;;;;;4.20;2.00;;;;;;;;;;5033636;28;20771;-77
2023/04/05 11:11:37;;;;;;;2.60;1.80;;;;;;;;;;5031667;28;20176;-78
2023/04/05 11:14:16;;;;;;;6.60;2.77;;;;;;;;;;5027242;28;20222;-77
2023/04/05 11:16:45;;;;;;;3.30;2.07;;;;;;;;;;5015130;28;20995;-78
2023/04/05 11:19:11;;;;;;;3.40;1.50;;;;;;;;;;5029913;28;20447;-77
2023/04/05 11:21:37;;;;;;;3.60;1.90;;;;;;;;;;5033251;28;20409;-77
2023/04/05 11:24:07;;;;;;;1.90;1.17;;;;;;;;;;5032136;28;20176;-77
2023/04/05 11:26:52;;;;;;;4.73;1.73;;;;;;;;;;5032711;28;20409;-77
2023/04/05 11:29:18;;;;;;;2.53;1.90;;;;;;;;;;5031879;28;20418;-78
2023/04/05 11:32:05;;;;;;;3.53;1.90;;;;;;;;;;5031417;28;20935;-77
2023/04/05 11:34:35;;;;;;;2.67;1.47;;;;;;;;;;5029211;28;20419;-77
2023/04/05 11:37:01;;;;;;;3.73;1.73;;;;;;;;;;5011779;28;20494;-77
2023/04/05 11:39:28;;;;;;;2.53;1.43;;;;;;;;;;5013134;28;20448;-77
2023/04/05 11:41:56;;;;;;;4.60;1.67;;;;;;;;;;5030638;28;20839;-77
2023/04/05 11:44:23;;;;;;;2.50;1.70;;;;;;;;;;5032438;28;20456;-77
2023/04/05 11:46:49;;;;;;;4.50;1.73;;;;;;;;;;5030149;28;20445;-77
2023/04/05 11:49:15;;;;;;;3.90;1.77;;;;;;;;;;5018849;28;20456;-76
2023/04/05 11:51:41;;;;;;;3.33;2.10;;;;;;;;;;5011204;28;20493;-78
2023/04/05 11:54:08;;;;;;;4.10;2.07;;;;;;;;;;5024447;28;20409;-78
2023/04/05 11:56:34;;;;;;;3.07;1.93;;;;;;;;;;5032545;28;20410;-78
2023/04/05 11:59:00;;;;;;;4.37;2.00;;;;;;;;;;5032448;28;20488;-78
2023/04/05 12:01:26;;;;;;;3.57;2.20;;;;;;;;;;5032858;28;20491;-79
2023/04/05 12:03:56;;;;;;;5.03;1.80;;;;;;;;;;5031961;28;20508;-79
2023/04/05 12:06:23;;;;;;;3.73;2.53;;;;;;;;;;5031380;28;20433;-78
2023/04/05 12:08:49;;;;;;;4.70;2.07;;;;;;;;;;5031290;28;20424;-78
2023/04/05 12:11:16;;;;;;;3.43;1.60;;;;;;;;;;5030874;28;20780;-78
2023/04/05 12:13:42;;;;;;;4.80;2.00;;;;;;;;;;5031174;28;20417;-78
2023/04/05 12:16:08;;;;;;;3.40;2.07;;;;;;;;;;5031192;28;20446;-78
2023/04/05 12:18:35;;;;;;;2.50;1.70;;;;;;;;;;5031286;28;20499;-78
2023/04/05 12:21:07;;;;;;;2.23;1.80;;;;;;;;;;5015672;28;20419;-80
2023/04/05 12:23:33;;;;;;;4.67;1.93;;;;;;;;;;5032630;28;20416;-78
2023/04/05 12:25:59;;;;;;;3.20;1.57;;;;;;;;;;5034816;28;21233;-78
2023/04/05 12:28:25;;;;;;;2.30;1.43;;;;;;;;;;5033968;28;20508;-78
2023/04/05 12:30:52;;;;;;;3.33;2.07;;;;;;;;;;5032552;28;20563;-78
2023/04/05 12:33:27;;;;;;;3.67;1.80;;;;;;;;;;5035150;28;20424;-78
2023/04/05 12:35:54;;;;;;;3.80;2.30;;;;;;;;;;5032370;28;20408;-78
2023/04/05 12:38:20;;;;;;;2.80;1.63;;;;;;;;;;5034987;28;20476;-77
2023/04/05 12:40:46;;;;;;;3.77;2.20;;;;;;;;;;5035503;28;20491;-77
2023/04/05 12:43:18;;;;;;;3.37;1.80;;;;;;;;;;5035636;28;20468;-77
2023/04/05 12:45:44;;;;;;;4.20;1.90;;;;;;;;;;5033396;28;20230;-79
2023/04/05 12:48:14;;;;;;;2.63;1.63;;;;;;;;;;5035453;28;20413;-77
2023/04/05 12:50:44;;;;;;;3.33;2.10;;;;;;;;;;5036109;28;20455;-77
2023/04/05 12:53:16;;;;;;;2.27;1.50;;;;;;;;;;5035823;28;20405;-77
2023/04/05 12:55:44;;;;;;;3.67;2.07;;;;;;;;;;5035674;28;20734;-77
2023/04/05 12:58:10;;;;;;;2.50;2.03;;;;;;;;;;5035871;28;20483;-77
2023/04/05 13:00:36;;;;;;;2.73;1.93;;;;;;;;;;5035924;28;20413;-77
2023/04/05 13:03:02;;;;;;;3.73;2.20;;;;;;;;;;5018210;28;20425;-77
2023/04/05 13:05:29;;;;;;;3.60;2.23;;;;;;;;;;5035884;28;20576;-77
2023/04/05 13:07:55;;;;;;;3.20;2.17;;;;;;;;;;5035765;28;20232;-77
2023/04/05 13:10:23;;;;;;;2.80;1.63;;;;;;;;;;5035442;28;20413;-77
2023/04/05 13:12:49;;;;;;;2.60;1.30;;;;;;;;;;5035849;28;20409;-77
2023/04/05 13:15:15;;;;;;;1.93;1.40;;;;;;;;;;5035624;28;20508;-77
2023/04/05 13:17:42;;;;;;;1.97;1.10;;;;;;;;;;5038129;28;20522;-76
2023/04/05 13:20:08;;;;;;;2.60;1.63;;;;;;;;;;5034380;28;20424;-79
2023/04/05 13:22:35;;;;;;;2.20;1.40;;;;;;;;;;5031310;28;20401;-79
2023/04/05 13:25:01;;;;;;;2.70;1.97;;;;;;;;;;5013741;28;20415;-79
2023/04/05 13:27:27;;;;;;;3.93;2.47;;;;;;;;;;5033864;28;20898;-79
2023/04/05 13:29:53;;;;;;;4.53;1.43;;;;;;;;;;5034086;28;20412;-79
2023/04/05 13:32:19;;;;;;;3.50;1.10;;;;;;;;;;5032843;28;20875;-77
2023/04/05 13:34:45;;;;;;;3.40;1.77;;;;;;;;;;5034019;28;20788;-77
2023/04/05 13:37:10;;;;;;;2.50;1.50;;;;;;;;;;5016144;28;20460;-79
2023/04/05 13:39:36;;;;;;;2.40;1.57;;;;;;;;;;5034111;28;20185;-79
2023/04/05 13:42:02;;;;;;;2.60;2.20;;;;;;;;;;5016081;28;20413;-79
2023/04/05 13:44:28;;;;;;;5.07;1.53;;;;;;;;;;5034384;28;20270;-79
2023/04/05 13:46:54;;;;;;;3.87;1.33;;;;;;;;;;5034095;28;20411;-79
2023/04/05 13:49:20;;;;;;;2.10;1.27;;;;;;;;;;5034158;28;20181;-76
2023/04/05 13:51:46;;;;;;;1.90;1.63;;;;;;;;;;5033958;28;20412;-76
2023/04/05 13:54:12;;;;;;;3.40;1.20;;;;;;;;;;5036385;28;20896;-79
2023/04/05 13:56:38;;;;;;;1.60;1.10;;;;;;;;;;5033373;28;20173;-78
2023/04/05 13:59:04;;;;;;;3.13;1.60;;;;;;;;;;5023853;28;20506;-78
2023/04/05 14:01:33;;;;;;;2.20;1.20;;;;;;;;;;5027931;28;20184;-83
2023/04/05 14:03:59;;;;;;;2.77;1.23;;;;;;;;;;5015565;28;20459;-86
2023/04/05 14:06:26;;;;;;;3.97;2.30;;;;;;;;;;5032637;28;20408;-82
2023/04/05 14:08:54;;;;;;;2.90;1.30;;;;;;;;;;5016572;28;20907;-77
2023/04/05 14:11:21;;;;;;;2.70;1.70;;;;;;;;;;5033794;28;20417;-78
2023/04/05 14:13:47;;;;;;;3.60;1.23;;;;;;;;;;5034068;28;20445;-77
2023/04/05 14:16:13;;;;;;;3.80;1.70;;;;;;;;;;5034198;28;20429;-78
2023/04/05 14:18:39;;;;;;;6.07;1.63;;;;;;;;;;5033862;28;20499;-78
2023/04/05 14:21:05;;;;;;;2.83;1.23;;;;;;;;;;5034042;28;20840;-78
2023/04/05 14:23:31;;;;;;;4.17;1.67;;;;;;;;;;5013524;28;20419;-78
2023/04/05 14:25:57;;;;;;;5.17;3.13;;;;;;;;;;5033477;28;20753;-78
2023/04/05 14:28:23;;;;;;;3.23;1.70;;;;;;;;;;5033785;28;20427;-78
2023/04/05 14:30:49;;;;;;;3.80;2.10;;;;;;;;;;5033543;28;20963;-78
2023/04/05 14:33:15;;;;;;;2.80;1.57;;;;;;;;;;5033316;28;20427;-78
2023/04/05 14:35:42;;;;;;;4.43;2.40;;;;;;;;;;5033338;28;20784;-78
2023/04/05 14:38:07;;;;;;;3.50;2.20;;;;;;;;;;5017568;28;20612;-78
2023/04/05 14:40:33;;;;;;;4.70;2.20;;;;;;;;;;5005890;28;20446;-78
2023/04/05 14:42:59;;;;;;;3.00;1.60;;;;;;;;;;5013907;28;20424;-78
2023/04/05 14:45:26;;;;;;;2.90;2.23;;;;;;;;;;5014302;28;20427;-78